Time;durP1;ratioP1;P1;durP2;ratioP2;P2;SDS_P1;SDS_P2;PMS_P1;PMS_P2;Temp;Humidity;BMP_temperature;BMP_pressure;BME280_temperature;BME280_humidity;BME280_pressure;Samples;Min_cycle;Max_cycle;Signal;HPM_P1;HPM_P2
2024/01/14 00:00:34;;;;;;;60.37;15.47;;;;;;;-8.98;100.00;93840.44;5026332;28;20049;-71
2024/01/14 00:03:01;;;;;;;47.47;12.25;;;;;;;-9.02;100.00;93834.13;5010949;28;20034;-72
2024/01/14 00:05:28;;;;;;;48.33;12.98;;;;;;;-9.17;100.00;93829.91;5021924;28;20128;-72
2024/01/14 00:07:56;;;;;;;38.88;11.32;;;;;;;-9.22;100.00;93829.22;5030621;28;20030;-72
2024/01/14 00:10:23;;;;;;;36.08;10.32;;;;;;;-9.26;100.00;93829.00;5030066;28;20053;-71
2024/01/14 00:12:50;;;;;;;32.87;9.77;;;;;;;-9.21;100.00;93833.41;5030147;28;20041;-71
2024/01/14 00:15:18;;;;;;;18.13;6.45;;;;;;;-9.29;100.00;93833.03;5029749;28;20056;-70
2024/01/14 00:17:46;;;;;;;26.10;8.18;;;;;;;-9.36;100.00;93837.94;5030132;28;20041;-72
2024/01/14 00:20:13;;;;;;;31.65;9.70;;;;;;;-9.36;100.00;93829.97;5029898;28;20490;-73
2024/01/14 00:22:40;;;;;;;27.23;8.60;;;;;;;-9.33;100.00;93834.72;5030190;28;20518;-73
2024/01/14 00:25:07;;;;;;;30.00;9.37;;;;;;;-9.33;100.00;93826.72;5028996;28;20080;-73
2024/01/14 00:27:33;;;;;;;38.65;10.50;;;;;;;-9.27;100.00;93809.63;5029486;28;20405;-72
2024/01/14 00:30:00;;;;;;;35.63;10.77;;;;;;;-9.26;100.00;93805.84;5030373;28;20411;-73
2024/01/14 00:32:27;;;;;;;38.83;11.00;;;;;;;-9.31;100.00;93802.53;5029214;28;20046;-72
2024/01/14 00:34:54;;;;;;;30.92;9.55;;;;;;;-9.33;100.00;93791.41;5029797;28;20083;-73
2024/01/14 00:37:23;;;;;;;32.53;9.60;;;;;;;-9.34;100.00;93777.31;5029534;28;20375;-73
2024/01/14 00:39:50;;;;;;;46.15;10.73;;;;;;;-9.34;100.00;93784.50;5011124;28;20054;-73
2024/01/14 00:42:17;;;;;;;38.28;11.00;;;;;;;-9.30;100.00;93780.97;5029169;28;20475;-73
2024/01/14 00:44:44;;;;;;;38.33;11.02;;;;;;;-9.30;100.00;93772.97;5029624;28;20052;-72
2024/01/14 00:47:10;;;;;;;38.05;10.93;;;;;;;-9.27;100.00;93775.06;5029947;28;20053;-73
2024/01/14 00:49:37;;;;;;;47.03;11.30;;;;;;;-9.27;100.00;93758.34;5028838;28;20406;-73
2024/01/14 00:52:04;;;;;;;35.15;9.68;;;;;;;-9.25;100.00;93770.25;5029864;28;20045;-73
2024/01/14 00:54:31;;;;;;;42.45;11.38;;;;;;;-9.30;100.00;93765.00;5029191;28;20053;-72
2024/01/14 00:56:58;;;;;;;39.20;9.88;;;;;;;-9.20;100.00;93768.56;5029671;28;20094;-72
2024/01/14 00:59:25;;;;;;;37.17;10.98;;;;;;;-9.28;100.00;93760.19;5029259;28;20052;-72
2024/01/14 01:01:52;;;;;;;36.77;9.33;;;;;;;-9.33;100.00;93765.63;5029651;28;20053;-73
2024/01/14 01:04:18;;;;;;;30.25;10.38;;;;;;;-9.35;100.00;93764.34;5028906;28;20040;-73
2024/01/14 01:06:45;;;;;;;35.40;11.15;;;;;;;-9.32;100.00;93756.53;5029335;28;20041;-73
2024/01/14 01:09:12;;;;;;;36.60;9.75;;;;;;;-9.25;100.00;93756.19;5028683;28;20387;-72
2024/01/14 01:11:39;;;;;;;40.78;11.38;;;;;;;-9.20;100.00;93753.41;5029513;28;20421;-72
2024/01/14 01:14:05;;;;;;;35.23;9.93;;;;;;;-9.15;100.00;93748.00;5019850;28;20064;-73
2024/01/14 01:16:33;;;;;;;33.60;10.48;;;;;;;-9.13;100.00;93761.00;5025290;28;20387;-72
2024/01/14 01:19:00;;;;;;;27.65;8.32;;;;;;;-9.20;100.00;93747.31;5028999;28;20402;-73
2024/01/14 01:21:27;;;;;;;34.20;9.93;;;;;;;-9.17;100.00;93750.16;5029094;28;20508;-72
2024/01/14 01:23:54;;;;;;;34.78;9.60;;;;;;;-9.15;100.00;93734.72;5027893;28;20099;-72
2024/01/14 01:26:21;;;;;;;29.97;8.80;;;;;;;-9.17;100.00;93736.09;5028869;28;20042;-72
2024/01/14 01:28:48;;;;;;;38.88;11.32;;;;;;;-9.24;100.00;93745.22;5029202;28;20044;-73
2024/01/14 01:31:14;;;;;;;33.83;9.93;;;;;;;-9.28;100.00;93735.50;5028570;28;20401;-73
2024/01/14 01:33:53;;;;;;;32.53;9.20;;;;;;;-9.30;100.00;93733.13;5029126;28;20068;-73
2024/01/14 01:36:20;;;;;;;31.70;9.80;;;;;;;-9.27;100.00;93731.75;5028532;28;20418;-72
2024/01/14 01:38:47;;;;;;;32.10;10.03;;;;;;;-9.18;100.00;93731.84;5029100;28;20042;-73
2024/01/14 01:41:14;;;;;;;31.20;8.95;;;;;;;-9.18;100.00;93731.84;5028964;28;20084;-72
2024/01/14 01:43:41;;;;;;;36.28;10.65;;;;;;;-9.21;100.00;93724.47;5029273;28;20049;-72
2024/01/14 01:46:08;;;;;;;33.80;9.57;;;;;;;-9.16;100.00;93725.16;5029221;28;20037;-73
2024/01/14 01:48:35;;;;;;;37.50;10.45;;;;;;;-9.15;100.00;93725.97;5028696;28;20045;-71
2024/01/14 01:51:02;;;;;;;39.33;10.00;;;;;;;-9.11;100.00;93717.09;5029017;28;20045;-73
2024/01/14 01:53:30;;;;;;;32.97;9.77;;;;;;;-9.13;100.00;93721.13;5028470;28;20075;-72
2024/01/14 01:55:57;;;;;;;32.08;10.05;;;;;;;-9.14;100.00;93703.59;5028460;28;20501;-73
2024/01/14 01:58:24;;;;;;;34.35;9.82;;;;;;;-9.11;100.00;93709.13;5028626;28;20055;-73
2024/01/14 02:00:51;;;;;;;28.85;8.13;;;;;;;-9.14;100.00;93707.03;5028199;28;20065;-72
2024/01/14 02:03:20;;;;;;;35.30;10.00;;;;;;;-9.16;100.00;93697.78;5027078;28;20071;-73
2024/01/14 02:05:51;;;;;;;35.78;9.85;;;;;;;-9.16;100.00;93700.44;5028750;28;20045;-73
2024/01/14 02:08:18;;;;;;;40.40;10.45;;;;;;;-9.14;100.00;93695.63;5028571;28;20041;-73
2024/01/14 02:10:45;;;;;;;33.47;9.02;;;;;;;-9.19;100.00;93696.53;5028739;28;20068;-72
2024/01/14 02:13:12;;;;;;;37.80;10.10;;;;;;;-9.15;100.00;93697.50;5028484;28;20038;-71
2024/01/14 02:15:39;;;;;;;33.60;10.70;;;;;;;-9.13;100.00;93703.31;5028906;28;20045;-73
2024/01/14 02:18:05;;;;;;;34.92;9.43;;;;;;;-9.16;100.00;93703.88;5029476;28;20049;-72
2024/01/14 02:20:32;;;;;;;34.03;9.93;;;;;;;-9.17;100.00;93697.00;5032030;28;20099;-73
2024/01/14 02:23:01;;;;;;;43.28;11.32;;;;;;;-9.23;100.00;93690.22;5032498;28;20049;-72
2024/01/14 02:25:29;;;;;;;41.13;11.32;;;;;;;-9.17;100.00;93689.03;5032031;28;20048;-72
2024/01/14 02:27:55;;;;;;;33.70;9.97;;;;;;;-9.20;100.00;93694.16;5032393;28;20076;-72
2024/01/14 02:30:22;;;;;;;38.17;10.57;;;;;;;-9.20;100.00;93686.97;5031788;28;20632;-72
2024/01/14 02:32:50;;;;;;;36.47;10.23;;;;;;;-9.09;100.00;93696.31;5032180;28;20050;-72
2024/01/14 02:35:18;;;;;;;39.83;10.68;;;;;;;-9.08;100.00;93686.47;5031704;28;20050;-73
2024/01/14 02:37:45;;;;;;;30.02;8.95;;;;;;;-9.08;100.00;93684.56;5032385;28;20072;-70
2024/01/14 02:40:12;;;;;;;37.33;8.80;;;;;;;-9.06;100.00;93679.75;5031513;28;20045;-70
2024/01/14 02:42:40;;;;;;;28.70;8.25;;;;;;;-9.12;100.00;93677.50;5031744;28;20048;-71
2024/01/14 02:45:10;;;;;;;30.90;8.60;;;;;;;-9.09;100.00;93672.38;5032061;28;20095;-71
2024/01/14 02:47:36;;;;;;;27.90;8.43;;;;;;;-9.08;100.00;93673.16;5031168;28;20045;-72
2024/01/14 02:50:03;;;;;;;32.45;9.77;;;;;;;-9.12;100.00;93659.69;5032115;28;20045;-71
2024/01/14 02:52:30;;;;;;;36.33;10.50;;;;;;;-9.08;100.00;93665.19;5031001;28;20061;-71
2024/01/14 02:54:57;;;;;;;35.42;10.10;;;;;;;-9.09;100.00;93664.41;5031939;28;20046;-72
2024/01/14 02:57:24;;;;;;;38.20;10.52;;;;;;;-9.05;100.00;93661.94;5031245;28;20059;-70
2024/01/14 02:59:51;;;;;;;41.17;10.52;;;;;;;-9.11;100.00;93655.16;5032109;28;20490;-72
2024/01/14 03:02:18;;;;;;;33.72;9.93;;;;;;;-9.06;100.00;93663.03;5031118;28;20049;-72
2024/01/14 03:04:44;;;;;;;32.43;9.10;;;;;;;-9.11;100.00;93655.16;5031801;28;20096;-71
2024/01/14 03:07:11;;;;;;;33.35;8.85;;;;;;;-9.14;100.00;93650.44;5031135;28;20050;-69
2024/01/14 03:09:38;;;;;;;31.35;8.85;;;;;;;-9.10;100.00;93662.03;5033414;28;20049;-71
2024/01/14 03:12:05;;;;;;;30.15;8.70;;;;;;;-9.07;100.00;93651.59;5033629;28;20053;-72
2024/01/14 03:14:32;;;;;;;27.27;8.05;;;;;;;-9.19;100.00;93653.19;5019468;28;20382;-72
2024/01/14 03:16:59;;;;;;;27.57;9.00;;;;;;;-9.18;100.00;93642.25;5016527;28;20692;-72
2024/01/14 03:19:26;;;;;;;35.22;9.73;;;;;;;-9.17;100.00;93645.72;5030763;28;20049;-71
2024/01/14 03:21:53;;;;;;;31.55;10.30;;;;;;;-9.11;100.00;93642.66;5031388;28;20122;-71
2024/01/14 03:24:20;;;;;;;33.78;9.25;;;;;;;-9.10;100.00;93640.78;5031089;28;20106;-72
2024/01/14 03:26:47;;;;;;;36.05;9.05;;;;;;;-9.06;100.00;93634.56;5031279;28;20045;-71
2024/01/14 03:29:15;;;;;;;31.00;8.63;;;;;;;-9.11;100.00;93633.91;5030866;28;20122;-72
2024/01/14 03:31:41;;;;;;;34.38;8.90;;;;;;;-9.19;100.00;93631.94;5030890;28;20034;-72
2024/01/14 03:34:08;;;;;;;29.60;8.02;;;;;;;-9.16;100.00;93634.00;5031253;28;20053;-71
2024/01/14 03:36:35;;;;;;;34.70;8.80;;;;;;;-9.20;100.00;93630.38;5030432;28;20037;-72
2024/01/14 03:39:03;;;;;;;34.47;9.05;;;;;;;-9.17;100.00;93619.94;5031113;28;20038;-72
2024/01/14 03:41:31;;;;;;;27.37;8.57;;;;;;;-9.11;100.00;93624.06;5030406;28;20045;-71
2024/01/14 03:43:57;;;;;;;27.85;8.80;;;;;;;-9.03;100.00;93617.25;5031189;28;20046;-71
2024/01/14 03:46:24;;;;;;;32.97;9.75;;;;;;;-9.07;100.00;93616.28;5030326;28;20401;-72
2024/01/14 03:48:51;;;;;;;37.95;10.07;;;;;;;-9.08;100.00;93620.78;5030965;28;20057;-71
2024/01/14 03:51:18;;;;;;;35.33;9.82;;;;;;;-9.10;100.00;93614.97;5030357;28;20042;-71
2024/01/14 03:53:45;;;;;;;30.93;8.63;;;;;;;-9.02;100.00;93604.72;5030521;28;20100;-72
2024/01/14 03:56:11;;;;;;;32.67;9.35;;;;;;;-9.02;100.00;93602.84;5030434;28;20038;-70
2024/01/14 03:58:39;;;;;;;33.83;9.88;;;;;;;-8.99;100.00;93601.47;5030423;28;20060;-71
2024/01/14 04:01:06;;;;;;;30.48;9.00;;;;;;;-9.04;100.00;93600.47;5030730;28;20088;-72
2024/01/14 04:03:33;;;;;;;32.90;8.70;;;;;;;-9.00;100.00;93597.25;5029049;28;20114;-71
2024/01/14 04:06:04;;;;;;;39.70;10.77;;;;;;;-8.94;100.00;93602.13;5029606;28;20091;-71
2024/01/14 04:08:31;;;;;;;53.95;14.15;;;;;;;-8.91;100.00;93604.19;5030202;28;20556;-72
2024/01/14 04:10:58;;;;;;;37.33;10.98;;;;;;;-8.93;100.00;93598.41;5030315;28;20037;-71
2024/01/14 04:13:25;;;;;;;35.38;9.30;;;;;;;-8.87;100.00;93589.22;5029880;28;20045;-71
2024/01/14 04:15:54;;;;;;;33.30;10.07;;;;;;;-8.75;100.00;93590.53;5029215;28;20083;-71
2024/01/14 04:18:24;;;;;;;32.63;10.10;;;;;;;-8.77;100.00;93588.19;5029496;28;20042;-71
2024/01/14 04:20:51;;;;;;;32.83;10.13;;;;;;;-8.77;100.00;93585.53;5030192;28;20052;-71
2024/01/14 04:23:18;;;;;;;34.08;10.57;;;;;;;-8.74;100.00;93590.22;5029337;28;20049;-71
2024/01/14 04:25:45;;;;;;;36.83;10.30;;;;;;;-8.82;100.00;93585.66;5030159;28;20045;-71
2024/01/14 04:28:11;;;;;;;34.65;11.27;;;;;;;-8.74;100.00;93587.56;5029838;28;20091;-70
2024/01/14 04:30:38;;;;;;;35.23;9.50;;;;;;;-8.72;100.00;93580.06;5030343;28;20045;-71
2024/01/14 04:33:05;;;;;;;30.95;9.43;;;;;;;-8.68;100.00;93573.06;5061229;28;20064;-70
2024/01/14 04:35:32;;;;;;;34.13;9.85;;;;;;;-8.71;100.00;93565.72;5029660;28;20539;-70
2024/01/14 04:37:59;;;;;;;33.67;10.38;;;;;;;-8.71;100.00;93564.91;5029645;28;20037;-70
2024/01/14 04:40:27;;;;;;;35.67;10.00;;;;;;;-8.69;100.00;93563.53;5025401;28;20049;-71
2024/01/14 04:42:54;;;;;;;36.20;9.90;;;;;;;-8.68;100.00;93562.44;5011238;28;20475;-71
2024/01/14 04:45:20;;;;;;;33.80;9.63;;;;;;;-8.80;100.00;93567.50;5020507;28;20055;-70
2024/01/14 04:47:47;;;;;;;33.50;9.35;;;;;;;-8.79;100.00;93568.28;5029429;28;20067;-71
2024/01/14 04:50:14;;;;;;;31.27;9.55;;;;;;;-8.92;100.00;93564.63;5029282;28;20475;-71
2024/01/14 04:52:42;;;;;;;35.05;11.05;;;;;;;-8.81;100.00;93563.28;5028205;28;20049;-70
2024/01/14 04:55:08;;;;;;;37.93;10.13;;;;;;;-8.73;100.00;93567.06;5029750;28;20041;-70
2024/01/14 04:57:35;;;;;;;31.35;10.38;;;;;;;-8.73;100.00;93567.88;5029222;28;20401;-70
2024/01/14 05:00:03;;;;;;;34.58;9.82;;;;;;;-8.74;100.00;93560.97;5029473;28;20045;-71
2024/01/14 05:02:30;;;;;;;33.42;9.00;;;;;;;-8.74;100.00;93570.84;5028892;28;20079;-70
2024/01/14 05:04:57;;;;;;;33.88;9.48;;;;;;;-8.72;100.00;93560.69;5029428;28;20064;-71
2024/01/14 05:07:23;;;;;;;34.77;10.13;;;;;;;-8.73;100.00;93570.53;5028626;28;20049;-70
2024/01/14 05:09:50;;;;;;;32.92;9.85;;;;;;;-8.71;100.00;93557.72;5029524;28;20123;-71
2024/01/14 05:12:17;;;;;;;29.70;9.20;;;;;;;-8.75;100.00;93562.09;5028505;28;20042;-70
2024/01/14 05:14:44;;;;;;;28.23;8.52;;;;;;;-8.76;100.00;93549.09;5016447;28;20042;-70
2024/01/14 05:17:10;;;;;;;26.45;8.00;;;;;;;-8.84;100.00;93551.38;5028999;28;20059;-71
2024/01/14 05:19:40;;;;;;;29.10;8.53;;;;;;;-8.89;100.00;93551.50;5028189;28;21075;-70
2024/01/14 05:22:07;;;;;;;28.92;9.48;;;;;;;-9.11;100.00;93546.97;5029598;28;20056;-71
2024/01/14 05:24:34;;;;;;;28.00;7.97;;;;;;;-8.98;100.00;93560.50;5028612;28;20052;-71
2024/01/14 05:27:01;;;;;;;31.02;8.95;;;;;;;-8.89;100.00;93548.84;5029412;28;20477;-71
2024/01/14 05:29:28;;;;;;;26.88;8.70;;;;;;;-8.90;100.00;93547.25;5028599;28;20071;-70
2024/01/14 05:31:55;;;;;;;30.47;9.03;;;;;;;-8.88;100.00;93539.00;5028903;28;20072;-71
2024/01/14 05:34:21;;;;;;;28.75;8.25;;;;;;;-8.89;100.00;93546.19;5028280;28;20049;-71
2024/01/14 05:36:48;;;;;;;32.90;9.70;;;;;;;-8.84;100.00;93545.28;5028818;28;20421;-71
2024/01/14 05:39:15;;;;;;;24.38;8.07;;;;;;;-8.77;100.00;93542.97;5028541;28;20192;-70
2024/01/14 05:41:43;;;;;;;27.17;8.38;;;;;;;-8.75;100.00;93540.00;5029120;28;20444;-71
2024/01/14 05:44:10;;;;;;;33.93;9.30;;;;;;;-8.72;100.00;93537.53;5029103;28;20067;-70
2024/01/14 05:46:37;;;;;;;37.63;10.55;;;;;;;-8.67;100.00;93547.25;5028319;28;20925;-70
2024/01/14 05:49:04;;;;;;;36.63;10.50;;;;;;;-8.68;100.00;93540.38;5027721;28;20067;-70
2024/01/14 05:51:31;;;;;;;32.08;8.93;;;;;;;-8.72;100.00;93534.88;5028796;28;20061;-71
2024/01/14 05:53:58;;;;;;;30.27;8.68;;;;;;;-8.76;100.00;93533.13;5031021;28;20037;-71
2024/01/14 05:56:28;;;;;;;33.60;9.00;;;;;;;-8.77;100.00;93532.34;5032586;28;20042;-71
2024/01/14 05:58:55;;;;;;;22.00;7.28;;;;;;;-8.83;100.00;93536.22;5031649;28;20033;-71
2024/01/14 06:01:22;;;;;;;26.90;7.85;;;;;;;-8.85;100.00;93543.72;5022504;28;20410;-71
2024/01/14 06:03:48;;;;;;;31.02;8.48;;;;;;;-8.77;100.00;93539.53;5013048;28;20040;-70
2024/01/14 06:06:15;;;;;;;30.05;8.40;;;;;;;-8.75;100.00;93545.31;5030796;28;20080;-71
2024/01/14 06:08:43;;;;;;;35.37;9.30;;;;;;;-8.73;100.00;93545.81;5032968;28;20055;-70
2024/01/14 06:11:10;;;;;;;32.60;10.32;;;;;;;-8.77;100.00;93548.31;5032942;28;20050;-71
2024/01/14 06:13:37;;;;;;;35.10;9.82;;;;;;;-8.82;100.00;93543.09;5032292;28;20056;-71
2024/01/14 06:16:04;;;;;;;25.55;8.25;;;;;;;-8.85;100.00;93538.41;5032620;28;20038;-70
2024/01/14 06:18:31;;;;;;;33.58;9.57;;;;;;;-8.82;100.00;93535.13;5032125;28;22299;-70
2024/01/14 06:21:00;;;;;;;23.57;8.00;;;;;;;-8.82;100.00;93543.09;5032257;28;20050;-70
2024/01/14 06:23:28;;;;;;;31.98;10.00;;;;;;;-8.85;100.00;93539.19;5032130;28;20043;-70
2024/01/14 06:25:55;;;;;;;35.30;10.23;;;;;;;-8.88;100.00;93536.34;5032570;28;20048;-70
2024/01/14 06:28:22;;;;;;;37.08;9.68;;;;;;;-8.88;100.00;93529.13;5032070;28;20042;-71
2024/01/14 06:30:49;;;;;;;31.77;9.85;;;;;;;-8.86;100.00;93534.94;5032211;28;20041;-71
2024/01/14 06:33:15;;;;;;;33.10;10.27;;;;;;;-8.89;100.00;93530.22;5031808;28;20047;-71
2024/01/14 06:35:42;;;;;;;32.30;9.63;;;;;;;-8.89;100.00;93534.78;5032268;28;20406;-70
2024/01/14 06:38:09;;;;;;;39.63;10.60;;;;;;;-8.91;100.00;93532.41;5032357;28;20045;-70
2024/01/14 06:40:36;;;;;;;34.10;9.15;;;;;;;-8.98;100.00;93525.94;5031513;28;20726;-70
2024/01/14 06:43:09;;;;;;;30.02;8.90;;;;;;;-8.98;100.00;93528.59;5032354;28;20042;-71
2024/01/14 06:45:36;;;;;;;44.40;11.63;;;;;;;-9.02;100.00;93528.41;5031487;28;20076;-71
2024/01/14 06:48:03;;;;;;;41.03;11.48;;;;;;;-9.01;100.00;93516.72;5032165;28;20412;-72
2024/01/14 06:50:30;;;;;;;33.30;9.80;;;;;;;-9.05;100.00;93527.16;5031743;28;20037;-71
2024/01/14 06:52:57;;;;;;;28.98;8.82;;;;;;;-9.10;100.00;93523.81;5032222;28;20046;-70
2024/01/14 06:55:24;;;;;;;31.42;9.77;;;;;;;-9.10;100.00;93521.16;5031295;28;20494;-71
2024/01/14 06:57:51;;;;;;;38.37;11.27;;;;;;;-9.11;100.00;93530.25;5031525;28;20060;-70
2024/01/14 07:00:18;;;;;;;36.60;10.70;;;;;;;-9.07;100.00;93523.22;5028573;28;20581;-71
2024/01/14 07:02:46;;;;;;;30.30;10.43;;;;;;;-9.13;100.00;93529.75;5012967;28;20259;-71
2024/01/14 07:05:13;;;;;;;38.40;11.13;;;;;;;-9.22;100.00;93524.34;5020868;28;20064;-71
2024/01/14 07:07:40;;;;;;;34.47;10.20;;;;;;;-9.33;100.00;93525.69;5031960;28;20045;-71
2024/01/14 07:10:07;;;;;;;39.33;11.83;;;;;;;-9.41;100.00;93523.75;5031709;28;20453;-71
2024/01/14 07:12:35;;;;;;;36.38;10.52;;;;;;;-9.32;100.00;93528.03;5031068;28;20042;-71
2024/01/14 07:15:02;;;;;;;46.03;13.20;;;;;;;-9.42;100.00;93524.81;5030325;28;20061;-72
2024/01/14 07:17:29;;;;;;;34.65;10.98;;;;;;;-9.34;100.00;93527.53;5030658;28;20049;-71
2024/01/14 07:20:16;;;;;;;37.63;10.95;;;;;;;-9.27;100.00;93522.63;5029826;28;20050;-72
2024/01/14 07:22:43;;;;;;;36.90;11.60;;;;;;;-9.22;100.00;93527.03;5030738;28;20041;-71
2024/01/14 07:25:10;;;;;;;38.17;11.57;;;;;;;-9.32;100.00;93525.38;5031233;28;20053;-69
2024/01/14 07:27:37;;;;;;;38.53;10.65;;;;;;;-9.32;100.00;93525.38;5030398;28;20425;-71
2024/01/14 07:30:07;;;;;;;42.45;11.52;;;;;;;-9.21;100.00;93523.28;5031553;28;20049;-72
2024/01/14 07:32:34;;;;;;;43.15;13.35;;;;;;;-9.07;100.00;93523.22;5030559;28;20042;-70
2024/01/14 07:35:01;;;;;;;55.47;15.07;;;;;;;-9.02;100.00;93528.41;5028568;28;20050;-73
2024/01/14 07:37:30;;;;;;;46.83;14.55;;;;;;;-9.09;100.00;93523.53;5030540;28;20098;-73
2024/01/14 07:39:57;;;;;;;46.85;14.60;;;;;;;-9.00;100.00;93534.22;5031014;28;20052;-73
2024/01/14 07:42:24;;;;;;;47.78;14.15;;;;;;;-8.93;100.00;93529.28;5030110;28;20041;-73
2024/01/14 07:44:51;;;;;;;43.40;14.48;;;;;;;-8.91;100.00;93535.06;5037174;28;20098;-74
2024/01/14 07:47:17;;;;;;;42.73;13.40;;;;;;;-8.81;100.00;93543.88;5030439;28;20410;-73
2024/01/14 07:49:49;;;;;;;42.55;12.85;;;;;;;-8.69;100.00;93539.59;5030306;28;20043;-74
2024/01/14 07:52:16;;;;;;;37.17;11.75;;;;;;;-8.56;100.00;93542.47;5030409;28;20415;-73
2024/01/14 07:54:43;;;;;;;34.03;11.68;;;;;;;-8.42;100.00;93545.84;5029410;28;20598;-74
2024/01/14 07:57:11;;;;;;;41.08;12.68;;;;;;;-8.36;100.00;93541.91;5030729;28;20056;-74
2024/01/14 07:59:38;;;;;;;36.33;11.70;;;;;;;-8.54;100.00;93540.28;5028537;28;21569;-74
2024/01/14 08:02:05;;;;;;;35.42;11.13;;;;;;;-8.47;100.00;93548.63;5030735;28;20083;-74
2024/01/14 08:04:32;;;;;;;49.20;16.60;;;;;;;-8.49;100.00;93542.81;5022469;28;20056;-74
2024/01/14 08:06:59;;;;;;;43.78;14.90;;;;;;;-8.58;100.00;93537.44;5019498;28;20407;-75
2024/01/14 08:09:26;;;;;;;40.95;13.73;;;;;;;-8.11;100.00;93534.34;5029087;28;20045;-73
2024/01/14 08:11:53;;;;;;;52.87;16.63;;;;;;;-6.35;100.00;93528.81;5028813;28;20401;-75
2024/01/14 08:14:19;;;;;;;50.70;16.00;;;;;;;-3.76;100.00;93523.66;5029496;28;20444;-73
2024/01/14 08:16:46;;;;;;;48.80;16.45;;;;;;;-1.69;100.00;93519.84;5027641;28;20054;-75
2024/01/14 08:19:13;;;;;;;48.13;17.27;;;;;;;-0.19;100.00;93523.41;5028007;28;20049;-75
2024/01/14 08:21:43;;;;;;;49.08;19.40;;;;;;;0.17;94.95;93514.78;5030432;28;20052;-75
2024/01/14 08:24:10;;;;;;;46.23;18.30;;;;;;;0.80;100.00;93520.81;5030281;28;20475;-76
2024/01/14 08:26:45;;;;;;;51.80;21.23;;;;;;;0.21;86.71;93514.88;5029298;28;20110;-75
2024/01/14 08:29:15;;;;;;;49.20;20.85;;;;;;;2.95;88.39;93506.91;5029691;28;20049;-73
2024/01/14 08:31:52;;;;;;;40.58;18.90;;;;;;;1.43;73.12;93516.69;5029744;28;20061;-74
2024/01/14 08:34:19;;;;;;;48.75;22.48;;;;;;;1.45;78.97;93511.69;5026863;28;20069;-75
2024/01/14 08:36:46;;;;;;;41.53;18.43;;;;;;;1.81;74.79;93514.78;5021889;28;20582;-74
2024/01/14 08:39:13;;;;;;;76.13;33.53;;;;;;;2.35;79.29;93508.00;5029413;28;20037;-75
2024/01/14 08:41:40;;;;;;;121.50;48.45;;;;;;;3.27;67.07;93511.00;5029507;28;20106;-75
2024/01/14 08:44:10;;;;;;;76.45;33.55;;;;;;;1.96;62.11;93511.09;5030172;28;20490;-75
2024/01/14 08:46:40;;;;;;;219.18;97.82;;;;;;;3.34;63.96;93509.13;5028883;28;20398;-74
2024/01/14 08:49:07;;;;;;;478.37;242.53;;;;;;;3.46;62.28;93508.00;5029622;28;20049;-74
2024/01/14 08:51:34;;;;;;;174.88;94.38;;;;;;;2.31;67.63;93504.47;5029453;28;20420;-75
2024/01/14 08:54:01;;;;;;;122.55;70.63;;;;;;;1.80;70.56;93507.84;5029604;28;20034;-75
2024/01/14 08:56:28;;;;;;;43.95;20.67;;;;;;;-0.15;86.13;93506.13;5023002;28;20045;-73
2024/01/14 08:58:56;;;;;;;42.47;16.02;;;;;;;-1.66;100.00;93502.22;5033731;28;20041;-74
2024/01/14 09:01:24;;;;;;;39.80;14.00;;;;;;;-3.05;100.00;93508.16;5036015;28;20821;-73
2024/01/14 09:03:52;;;;;;;39.10;13.60;;;;;;;-3.31;100.00;93503.19;5028895;28;20075;-73
2024/01/14 09:06:19;;;;;;;39.38;14.13;;;;;;;-3.03;100.00;93500.56;5036363;28;20045;-73
2024/01/14 09:08:45;;;;;;;41.00;13.70;;;;;;;-3.74;100.00;93505.34;5038737;28;20397;-73
2024/01/14 09:11:13;;;;;;;46.60;16.40;;;;;;;-4.06;100.00;93501.63;5028313;28;20071;-72
2024/01/14 09:13:39;;;;;;;42.93;16.50;;;;;;;-3.89;100.00;93490.69;5030270;28;20045;-73
2024/01/14 09:16:07;;;;;;;78.03;30.50;;;;;;;-3.55;100.00;93493.28;5035400;28;20049;-73
2024/01/14 09:18:33;;;;;;;85.93;40.53;;;;;;;-1.52;100.00;93488.31;5036611;28;20142;-73
2024/01/14 09:21:00;;;;;;;46.75;19.90;;;;;;;-1.74;100.00;93487.81;5030679;28;20041;-73
2024/01/14 09:23:29;;;;;;;53.97;23.90;;;;;;;0.89;98.43;93480.81;5066330;28;20061;-74
2024/01/14 09:25:56;;;;;;;41.47;17.00;;;;;;;0.99;91.60;93482.13;5036444;28;20049;-73
2024/01/14 09:28:25;;;;;;;35.70;13.73;;;;;;;2.02;87.04;93470.19;5034531;28;20049;-73
2024/01/14 09:30:55;;;;;;;36.75;16.85;;;;;;;3.52;76.27;93470.44;5039153;28;20049;-73
2024/01/14 09:33:22;;;;;;;42.30;20.52;;;;;;;4.86;67.84;93450.47;5039753;28;20114;-72
2024/01/14 09:35:49;;;;;;;40.95;19.60;;;;;;;5.03;62.27;93454.31;5035258;28;20052;-73
2024/01/14 09:38:16;;;;;;;54.30;27.70;;;;;;;4.09;63.61;93448.88;5037080;28;20041;-72
2024/01/14 09:40:43;;;;;;;43.10;20.80;;;;;;;3.52;65.28;93451.44;5023314;28;20501;-74
2024/01/14 09:43:11;;;;;;;49.35;24.90;;;;;;;3.54;67.40;93449.13;5037077;28;20080;-73
2024/01/14 09:45:40;;;;;;;47.53;23.98;;;;;;;4.27;64.34;93448.16;5035531;28;20956;-73
2024/01/14 09:48:15;;;;;;;47.10;22.52;;;;;;;5.05;59.49;93446.53;5035336;28;20046;-72
2024/01/14 09:50:43;;;;;;;36.43;16.97;;;;;;;5.32;59.25;93439.47;5035635;28;20053;-72
2024/01/14 09:53:14;;;;;;;33.85;14.18;;;;;;;5.74;56.30;93437.00;5039827;28;20060;-72
2024/01/14 09:55:41;;;;;;;32.83;15.55;;;;;;;6.26;55.13;93434.41;5034116;28;20372;-72
2024/01/14 09:58:12;;;;;;;29.83;13.98;;;;;;;8.24;51.24;93430.38;5036244;28;20577;-72
2024/01/14 13:19:46;;;;;;;31.33;13.40;;;;;;;1.43;100.00;93075.97;5063111;27;20378;-67
2024/01/14 13:22:13;;;;;;;31.15;10.80;;;;;;;1.32;100.00;93075.13;5058403;28;20087;-71
2024/01/14 13:24:39;;;;;;;34.10;10.83;;;;;;;0.89;100.00;93064.06;5037605;28;20679;-67
2024/01/14 13:27:08;;;;;;;28.35;9.93;;;;;;;0.53;100.00;93063.75;5022560;28;20049;-66
2024/01/14 13:29:35;;;;;;;28.20;10.20;;;;;;;0.34;100.00;93064.72;5038359;28;20052;-70
2024/01/14 13:32:02;;;;;;;27.45;10.10;;;;;;;0.34;100.00;93062.84;5040242;28;20030;-66
2024/01/14 13:34:28;;;;;;;30.92;10.30;;;;;;;0.25;100.00;93056.19;5039408;28;20039;-63
2024/01/14 13:36:56;;;;;;;29.63;11.07;;;;;;;0.04;100.00;93043.25;5035818;28;20410;-66
2024/01/14 13:39:23;;;;;;;29.60;10.00;;;;;;;-0.01;100.00;93047.06;5036787;28;20056;-63
2024/01/14 13:41:50;;;;;;;29.30;10.48;;;;;;;0.08;100.00;93042.16;5040116;28;20037;-64
2024/01/14 13:44:16;;;;;;;25.60;9.55;;;;;;;0.01;100.00;93036.69;5038242;28;20060;-66
2024/01/14 13:46:45;;;;;;;32.00;11.98;;;;;;;0.25;100.00;93038.06;5038065;28;20050;-70
2024/01/14 13:49:13;;;;;;;30.07;11.00;;;;;;;0.64;100.00;93024.09;5036038;28;20053;-66
2024/01/14 13:51:41;;;;;;;30.08;10.50;;;;;;;0.58;100.00;93017.50;5034167;28;20045;-70
2024/01/14 13:54:11;;;;;;;27.92;10.73;;;;;;;0.49;100.00;93017.06;5036923;28;20053;-66
2024/01/14 13:56:43;;;;;;;27.35;10.15;;;;;;;-0.08;100.00;93020.81;5038394;28;20605;-64
2024/01/14 13:59:11;;;;;;;26.75;9.77;;;;;;;0.04;100.00;93014.38;5036035;28;20048;-63
2024/01/14 14:01:38;;;;;;;27.77;9.83;;;;;;;0.17;100.00;93007.53;5037317;28;20880;-68
2024/01/14 14:04:07;;;;;;;28.15;10.02;;;;;;;0.24;100.00;93009.50;5038952;28;20051;-63
2024/01/14 14:06:35;;;;;;;28.38;10.65;;;;;;;-0.06;100.00;93001.53;5056416;28;20045;-66
2024/01/14 14:09:07;;;;;;;30.95;9.73;;;;;;;-0.25;100.00;93000.59;5037687;28;20058;-61
2024/01/14 14:11:36;;;;;;;29.70;11.40;;;;;;;-0.06;100.00;93005.03;5039082;28;20681;-63
2024/01/14 14:14:03;;;;;;;31.90;10.30;;;;;;;-0.04;100.00;92999.25;5024595;28;20041;-66
2024/01/14 14:16:30;;;;;;;28.13;10.20;;;;;;;-0.16;100.00;93000.31;5056219;28;20033;-69
2024/01/14 14:19:08;;;;;;;28.98;9.85;;;;;;;-0.15;100.00;93001.06;5037461;28;20531;-64
2024/01/14 14:21:37;;;;;;;28.05;10.10;;;;;;;-0.27;100.00;92997.47;5038742;28;20049;-70
2024/01/14 14:24:07;;;;;;;26.17;10.43;;;;;;;-0.38;100.00;92996.59;5037341;28;20045;-65
2024/01/14 14:26:34;;;;;;;30.43;10.20;;;;;;;-0.50;100.00;92997.63;5038991;28;20041;-63
2024/01/14 14:29:00;;;;;;;26.75;10.10;;;;;;;-0.63;100.00;92993.63;5034683;28;20049;-66
2024/01/14 14:31:30;;;;;;;27.35;10.52;;;;;;;-0.53;100.00;92995.66;5021757;28;20053;-69
2024/01/14 14:35:48;;;;;;;27.58;10.55;;;;;;;-0.73;100.00;92992.34;5064445;28;20394;-68